logo
Search for airport 
image banner adimage banner adimage banner ad
image banner ad

LSXE - Erstfeld

Located in , Switzerland

ICAO - , IATA -

Data provided by Airmate  

General information

Coordinates: N46°50'1" E8°38'20"
Elevation is 1505 feet MSL.
Magnetic variation is 2.273° East
View others Airports in Nidwalden

Operational data

Special qualification required
Current time UTC:
Current local time:
Weather at : LSZC - Buochs ( 24 km )
METAR: LSZC 170550Z VRB03KT 9999 FEW010 BKN045 05/03 Q1011 REDZ
TAF: TAF LSZC 170525Z 1706/1715 25004KT 9999 FEW025 BKN045 TEMPO 1706/1715 31010KT SHRA SCT030TCU
View NOTAMs / SUP AIP / TFR affecting this airport [VIEW]
Communications frequencies: [VIEW]

Runways:

Airport contact information

Address: Switzerland

Satellite view of LSXE